KBTP/BTP METAR and TAF weather

Enter ICAO airport designator
Station Type Date Time Source
KBTP METAR 2022/05/24 11:56 UTC NOAA

KBTP 241156Z AUTO 06008KT 10SM CLR 12/08 A3021 RMK AO2 SLP237 6//// 7//// T01220083 10122 20083 53014 TSNO


Station Type Date Time Source
KBTP Decoded METAR 2022/05/24 11:56 UTC NOAA

Butler, Butler County Airport/K W Scholter Field, PA, United States (KBTP) 40-47N 079-57W
May 24, 2022 - 07:56 AM EDT / 2022.05.24 1156 UTC
Wind: from the ENE (060 degrees) at 9 MPH (8 KT):0
Visibility: 10 mile(s):0
Sky conditions: clear
Temperature: 54.0 F (12.2 C)
Dew Point: 46.9 F (8.3 C)
Relative Humidity: 77%
Pressure (altimeter): 30.21 in. Hg (1023 hPa)
Pressure tendency: 0.04 inches (1.4 hPa) higher than three hours ago
ob: KBTP 241156Z AUTO 06008KT 10SM CLR 12/08 A3021 RMK AO2 SLP237 6//// 7//// T01220083 10122 20083 53014 TSNO
cycle: 12

Station Type Date Time Source
KBTP TAF UTC NOAA

Error!

Example: see airport list